createdAt,value
2023-01-29T00:00:30.481Z,7.18
2023-01-29T00:03:28.342Z,7.93
2023-01-29T00:06:26.435Z,8.20
2023-01-29T00:09:24.183Z,7.70
2023-01-29T00:12:22.212Z,8.15
2023-01-29T00:15:21.173Z,7.50
2023-01-29T00:18:19.255Z,9.18
2023-01-29T00:21:20.358Z,8.82
2023-01-29T00:24:18.253Z,8.77
2023-01-29T00:27:16.049Z,9.15
2023-01-29T00:30:14.660Z,8.90
2023-01-29T00:33:14.096Z,7.97
2023-01-29T00:36:13.766Z,9.02
2023-01-29T00:39:11.613Z,9.00
2023-01-29T00:42:24.835Z,8.60
2023-01-29T00:45:22.628Z,8.80
2023-01-29T00:48:20.410Z,8.80
2023-01-29T00:51:18.444Z,9.02
2023-01-29T00:54:16.655Z,8.63
2023-01-29T00:57:14.423Z,8.77
2023-01-29T01:00:15.623Z,8.30
2023-01-29T01:03:13.499Z,9.35
2023-01-29T01:06:11.891Z,8.93
2023-01-29T01:09:26.671Z,9.30
2023-01-29T01:12:24.480Z,9.25
2023-01-29T01:15:23.966Z,9.88
2023-01-29T01:18:22.975Z,9.35
2023-01-29T01:21:20.892Z,10.40
2023-01-29T01:24:18.801Z,8.75
2023-01-29T01:27:17.156Z,9.55
2023-01-29T01:30:16.960Z,9.05
2023-01-29T01:33:15.080Z,9.23
2023-01-29T01:36:14.532Z,10.10
2023-01-29T01:39:12.243Z,9.18
2023-01-29T01:42:14.447Z,9.20
2023-01-29T01:45:29.869Z,9.30
2023-01-29T01:48:28.035Z,8.88
2023-01-29T01:51:29.174Z,9.15
2023-01-29T01:54:31.656Z,8.00
2023-01-29T01:57:31.982Z,8.87
2023-01-29T02:00:30.020Z,9.20
2023-01-29T02:03:47.339Z,9.63
2023-01-29T02:07:01.206Z,10.00
2023-01-29T02:10:09.035Z,9.63
2023-01-29T02:13:08.799Z,9.45
2023-01-29T02:16:06.673Z,9.25
2023-01-29T02:19:07.781Z,8.70
2023-01-29T02:22:40.556Z,9.30
2023-01-29T02:26:00.947Z,9.30
2023-01-29T02:29:23.959Z,10.43
2023-01-29T02:32:41.444Z,11.32
2023-01-29T02:35:45.814Z,10.98
2023-01-29T02:39:02.568Z,11.88
2023-01-29T02:42:18.997Z,9.60
2023-01-29T02:45:25.616Z,10.95
2023-01-29T02:48:26.329Z,10.55
2023-01-29T02:51:39.171Z,10.80
2023-01-29T02:54:54.134Z,10.60
2023-01-29T02:57:56.442Z,11.32
2023-01-29T03:00:56.926Z,11.63
2023-01-29T03:03:59.808Z,12.88
2023-01-29T03:07:03.856Z,12.57
2023-01-29T03:10:02.896Z,13.13
2023-01-29T03:13:08.802Z,13.30
2023-01-29T03:16:19.680Z,14.32
2023-01-29T03:19:23.689Z,16.45
2023-01-29T03:22:23.900Z,14.05
2023-01-29T03:25:40.471Z,11.68
2023-01-29T03:28:55.930Z,12.38
2023-01-29T03:32:11.934Z,12.93
2023-01-29T03:35:12.238Z,13.35
2023-01-29T03:38:12.568Z,12.13
2023-01-29T03:41:21.820Z,11.10
2023-01-29T03:44:41.497Z,11.55
2023-01-29T03:47:49.798Z,11.80
2023-01-29T03:51:12.639Z,12.65
2023-01-29T03:54:33.399Z,11.52
2023-01-29T03:57:36.618Z,11.15
2023-01-29T04:00:41.250Z,13.02
2023-01-29T04:03:44.171Z,13.98
2023-01-29T04:06:44.136Z,18.02
2023-01-29T04:09:50.691Z,21.13
2023-01-29T04:12:54.303Z,16.85
2023-01-29T04:15:57.233Z,15.50
2023-01-29T04:18:55.975Z,13.27
2023-01-29T04:22:02.491Z,12.93
2023-01-29T04:25:03.645Z,14.48
2023-01-29T04:28:09.107Z,14.40
2023-01-29T04:31:10.994Z,13.80
2023-01-29T04:34:23.828Z,14.00
2023-01-29T04:37:37.539Z,13.40
2023-01-29T04:40:55.171Z,14.25
2023-01-29T04:44:03.992Z,14.65
2023-01-29T04:47:22.560Z,15.40
2023-01-29T04:50:38.768Z,14.50
2023-01-29T04:54:00.615Z,15.15
2023-01-29T04:57:15.449Z,15.63
2023-01-29T05:00:20.588Z,15.00
2023-01-29T05:03:18.433Z,14.73
2023-01-29T05:06:17.510Z,14.98
2023-01-29T05:09:18.207Z,15.18
2023-01-29T05:12:18.588Z,15.05
2023-01-29T05:15:22.735Z,15.05
2023-01-29T05:18:20.668Z,15.43
2023-01-29T05:21:19.643Z,15.57
2023-01-29T05:24:21.606Z,18.35
2023-01-29T05:27:38.883Z,17.92
2023-01-29T05:30:38.801Z,17.00
2023-01-29T05:33:36.800Z,17.13
2023-01-29T05:36:34.641Z,17.67
2023-01-29T05:39:32.535Z,17.08
2023-01-29T05:42:30.351Z,18.98
2023-01-29T05:45:28.340Z,18.90
2023-01-29T05:48:29.495Z,19.05
2023-01-29T05:51:27.584Z,19.08
2023-01-29T05:54:25.299Z,19.10
2023-01-29T05:57:23.147Z,17.30
2023-01-29T06:00:21.046Z,18.02
2023-01-29T06:03:18.910Z,18.52
2023-01-29T06:06:17.818Z,16.25
2023-01-29T06:09:15.780Z,18.08
2023-01-29T06:12:13.544Z,16.95
2023-01-29T06:15:12.997Z,17.17
2023-01-29T06:18:11.276Z,17.88
2023-01-29T06:21:12.294Z,18.35
2023-01-29T06:24:10.237Z,19.67
2023-01-29T06:27:08.035Z,22.30
2023-01-29T06:30:26.176Z,27.00
2023-01-29T06:33:23.909Z,26.52
2023-01-29T06:36:23.569Z,22.20
2023-01-29T06:39:24.724Z,30.70
2023-01-29T06:42:28.462Z,39.10
2023-01-29T06:45:26.334Z,24.25
2023-01-29T06:48:25.342Z,25.77
2023-01-29T06:51:23.729Z,29.05
2023-01-29T06:54:21.591Z,29.35
2023-01-29T06:57:19.588Z,32.20
2023-01-29T07:00:18.058Z,36.30
2023-01-29T07:03:16.034Z,35.17
2023-01-29T07:06:13.819Z,32.70
2023-01-29T07:09:14.544Z,35.45
2023-01-29T07:12:12.579Z,34.78
2023-01-29T07:15:13.175Z,45.10
2023-01-29T07:18:13.032Z,51.50
2023-01-29T07:21:10.842Z,66.22
2023-01-29T07:24:11.609Z,62.13
2023-01-29T07:27:09.504Z,64.32
2023-01-29T07:30:08.072Z,77.78
2023-01-29T07:33:07.702Z,81.63
2023-01-29T07:36:09.671Z,80.13
2023-01-29T07:39:07.449Z,94.13
2023-01-29T07:42:05.560Z,80.78
2023-01-29T07:45:03.662Z,68.47
2023-01-29T07:48:02.057Z,66.45
2023-01-29T07:51:00.115Z,59.58
2023-01-29T07:53:57.912Z,57.63
2023-01-29T07:56:55.802Z,54.70
2023-01-29T07:59:53.851Z,48.90
2023-01-29T08:02:51.953Z,44.35
2023-01-29T08:05:50.113Z,37.20
2023-01-29T08:08:47.922Z,35.47
2023-01-29T08:11:45.770Z,36.65
2023-01-29T08:14:46.022Z,35.47
2023-01-29T08:17:57.261Z,32.70
2023-01-29T08:21:02.222Z,36.97
2023-01-29T08:27:04.785Z,37.42
2023-01-29T08:30:05.828Z,36.05
2023-01-29T08:33:06.955Z,34.55
2023-01-29T08:36:05.642Z,32.30
2023-01-29T08:39:03.795Z,30.35
2023-01-29T08:42:01.577Z,27.77
2023-01-29T08:44:59.398Z,27.98
2023-01-29T08:47:57.100Z,27.75
2023-01-29T08:50:59.345Z,25.17
2023-01-29T08:53:57.208Z,25.08
2023-01-29T08:56:55.043Z,24.63
2023-01-29T08:59:53.551Z,23.75
2023-01-29T09:02:51.430Z,22.42
2023-01-29T09:05:49.764Z,25.15
2023-01-29T09:08:48.493Z,22.20
2023-01-29T09:11:46.425Z,22.88
2023-01-29T09:14:44.213Z,21.85
2023-01-29T09:17:42.066Z,22.33
2023-01-29T09:20:40.798Z,23.75
2023-01-29T09:23:39.809Z,23.92
2023-01-29T09:26:38.172Z,23.98
2023-01-29T09:29:36.121Z,24.25
2023-01-29T09:35:53.232Z,21.98
2023-01-29T09:38:51.402Z,24.65
2023-01-29T09:42:04.662Z,23.60
2023-01-29T09:45:22.332Z,22.15
2023-01-29T09:48:23.050Z,30.17
2023-01-29T09:51:29.482Z,31.00
2023-01-29T09:54:34.616Z,38.58
2023-01-29T09:57:47.395Z,39.85
2023-01-29T10:01:09.108Z,50.03
2023-01-29T10:04:33.804Z,51.28
2023-01-29T10:07:58.246Z,50.15
2023-01-29T10:11:22.164Z,63.13
2023-01-29T10:14:44.463Z,65.85
2023-01-29T10:18:05.756Z,68.68
2023-01-29T10:21:23.990Z,77.90
2023-01-29T10:24:39.698Z,83.13
2023-01-29T10:27:41.639Z,60.20
2023-01-29T10:30:44.981Z,49.80
2023-01-29T10:36:57.813Z,33.20
2023-01-29T10:39:55.680Z,51.22
2023-01-29T10:43:12.963Z,50.17
2023-01-29T10:46:40.291Z,57.22
2023-01-29T10:49:55.675Z,50.40
2023-01-29T10:53:16.197Z,49.88
2023-01-29T10:56:47.637Z,53.20
2023-01-29T11:00:01.246Z,49.47
2023-01-29T11:03:08.151Z,43.40
2023-01-29T11:06:22.031Z,52.05
2023-01-29T11:09:36.714Z,54.72
2023-01-29T11:12:35.125Z,64.80
2023-01-29T11:15:35.594Z,71.13
2023-01-29T11:18:51.663Z,82.38
2023-01-29T11:22:05.008Z,73.45
2023-01-29T11:25:19.355Z,71.55
2023-01-29T11:28:37.227Z,62.97
2023-01-29T11:31:39.272Z,56.63
2023-01-29T11:35:06.452Z,56.00
2023-01-29T11:38:10.395Z,58.78
2023-01-29T11:41:19.064Z,55.08
2023-01-29T11:44:30.040Z,89.28
2023-01-29T11:47:30.602Z,95.72
2023-01-29T11:50:32.459Z,102.28
2023-01-29T11:53:46.096Z,91.93
2023-01-29T11:56:46.511Z,99.20
2023-01-29T11:59:50.660Z,87.32
2023-01-29T12:02:53.540Z,78.88
2023-01-29T12:05:59.890Z,68.03
2023-01-29T12:09:00.579Z,54.38
2023-01-29T12:12:19.014Z,50.90
2023-01-29T12:15:24.758Z,50.00
2023-01-29T12:18:42.224Z,45.58
2023-01-29T12:21:51.502Z,43.40
2023-01-29T12:24:59.738Z,47.45
2023-01-29T12:28:09.383Z,42.75
2023-01-29T12:31:18.645Z,42.45
2023-01-29T12:34:28.370Z,73.05
2023-01-29T12:37:46.152Z,49.78
2023-01-29T12:41:03.557Z,51.75
2023-01-29T12:44:22.785Z,48.65
2023-01-29T12:47:29.139Z,48.80
2023-01-29T12:50:36.035Z,49.50
2023-01-29T12:53:39.378Z,47.92
2023-01-29T12:59:47.957Z,41.22
2023-01-29T13:03:08.955Z,44.47
2023-01-29T13:06:12.402Z,46.45
2023-01-29T13:12:17.484Z,48.47
2023-01-29T13:15:29.891Z,46.20
2023-01-29T13:18:58.475Z,43.95
2023-01-29T13:22:00.746Z,41.13
2023-01-29T13:25:05.159Z,44.40
2023-01-29T13:28:04.098Z,42.38
2023-01-29T13:31:32.675Z,46.22
2023-01-29T13:34:35.325Z,49.15
2023-01-29T13:37:39.369Z,54.40
2023-01-29T13:40:38.868Z,45.58
2023-01-29T13:43:39.334Z,43.10
2023-01-29T13:46:42.047Z,43.42
2023-01-29T13:49:46.265Z,42.03
2023-01-29T13:52:58.610Z,40.17
2023-01-29T13:56:16.345Z,40.53
2023-01-29T13:59:26.247Z,39.33
2023-01-29T14:02:31.278Z,36.38
2023-01-29T14:05:41.645Z,36.88
2023-01-29T14:08:45.132Z,45.05
2023-01-29T14:11:49.047Z,45.25
2023-01-29T14:15:12.049Z,41.42
2023-01-29T14:18:27.308Z,40.80
2023-01-29T14:21:32.300Z,40.65
2023-01-29T14:24:32.393Z,40.17
2023-01-29T14:27:30.598Z,41.08
2023-01-29T14:30:33.315Z,40.13
2023-01-29T14:33:43.616Z,41.10
2023-01-29T14:36:45.430Z,40.05
2023-01-29T14:39:53.979Z,39.35
2023-01-29T14:43:21.350Z,38.15
2023-01-29T14:46:42.284Z,39.45
2023-01-29T14:49:57.207Z,37.83
2023-01-29T14:53:11.070Z,38.60
2023-01-29T14:56:22.688Z,40.28
2023-01-29T14:59:27.061Z,45.38
2023-01-29T15:02:38.740Z,49.72
2023-01-29T15:05:39.866Z,46.70
2023-01-29T15:08:44.628Z,53.45
2023-01-29T15:11:59.193Z,55.58
2023-01-29T15:15:17.656Z,52.88
2023-01-29T15:18:24.445Z,57.17
2023-01-29T15:21:22.246Z,73.25
2023-01-29T15:24:20.017Z,66.68
2023-01-29T15:27:20.617Z,61.45
2023-01-29T15:30:22.663Z,62.13
2023-01-29T15:33:20.775Z,51.05
2023-01-29T15:36:29.312Z,51.85
2023-01-29T15:39:29.031Z,50.05
2023-01-29T15:42:29.395Z,49.70
2023-01-29T15:45:33.047Z,46.88
2023-01-29T15:48:41.823Z,51.90
2023-01-29T15:51:46.900Z,51.40
2023-01-29T15:54:46.859Z,51.67
2023-01-29T15:57:46.125Z,68.38
2023-01-29T16:00:52.758Z,58.15
2023-01-29T16:03:59.386Z,71.45
2023-01-29T16:06:59.478Z,84.03
2023-01-29T16:10:05.292Z,96.20
2023-01-29T16:13:06.791Z,90.80
2023-01-29T16:16:19.965Z,119.60
2023-01-29T16:19:28.146Z,122.78
2023-01-29T16:22:31.684Z,104.00
2023-01-29T16:25:32.097Z,93.18
2023-01-29T16:28:31.295Z,88.80
2023-01-29T16:31:31.911Z,113.18
2023-01-29T16:34:38.384Z,127.07
2023-01-29T16:37:37.190Z,104.88
2023-01-29T16:40:38.593Z,88.68
2023-01-29T16:43:58.093Z,103.82
2023-01-29T16:46:56.001Z,91.57
2023-01-29T16:49:57.495Z,107.65
2023-01-29T16:53:01.313Z,102.43
2023-01-29T16:56:11.785Z,91.65
2023-01-29T16:59:21.475Z,95.40
2023-01-29T17:02:38.268Z,97.38
2023-01-29T17:05:38.430Z,99.13
2023-01-29T17:08:37.044Z,89.28
2023-01-29T17:11:41.451Z,86.28
2023-01-29T17:14:42.376Z,77.55
2023-01-29T17:17:41.047Z,78.60
2023-01-29T17:20:38.889Z,77.85
2023-01-29T17:23:36.681Z,76.75
2023-01-29T17:26:34.522Z,75.50
2023-01-29T17:29:32.938Z,71.28
2023-01-29T17:32:44.440Z,64.93
2023-01-29T17:35:44.949Z,63.70
2023-01-29T17:38:43.013Z,60.17
2023-01-29T17:41:40.956Z,58.00
2023-01-29T17:44:38.697Z,58.28
2023-01-29T17:47:36.842Z,52.30
2023-01-29T17:50:36.177Z,50.58
2023-01-29T17:53:45.211Z,43.90
2023-01-29T17:56:44.491Z,43.47
2023-01-29T17:59:44.439Z,46.80
2023-01-29T18:02:42.154Z,45.65
2023-01-29T18:05:43.213Z,40.95
2023-01-29T18:08:41.016Z,35.13
2023-01-29T18:11:38.969Z,34.13
2023-01-29T18:14:37.033Z,33.03
2023-01-29T18:17:35.207Z,31.63
2023-01-29T18:20:37.138Z,31.23
2023-01-29T18:23:35.468Z,30.67
2023-01-29T18:26:33.339Z,27.60
2023-01-29T18:29:31.256Z,27.27
2023-01-29T18:32:29.359Z,29.30
2023-01-29T18:35:29.220Z,28.17
2023-01-29T18:38:27.154Z,31.23
2023-01-29T18:41:31.095Z,33.13
2023-01-29T18:44:30.160Z,29.85
2023-01-29T18:47:27.961Z,34.55
2023-01-29T18:50:26.901Z,36.08
2023-01-29T18:53:24.987Z,35.78
2023-01-29T18:56:22.693Z,39.28
2023-01-29T18:59:20.591Z,43.85
2023-01-29T19:02:19.795Z,41.70
2023-01-29T19:05:22.018Z,41.90
2023-01-29T19:08:19.911Z,40.83
2023-01-29T19:11:18.751Z,39.30
2023-01-29T19:14:16.828Z,33.08
2023-01-29T19:17:14.756Z,37.22
2023-01-29T19:20:13.003Z,33.28
2023-01-29T19:23:10.917Z,33.28
2023-01-29T19:26:10.716Z,33.00
2023-01-29T19:29:09.683Z,31.17
2023-01-29T19:32:09.233Z,31.27
2023-01-29T19:35:07.160Z,32.83
2023-01-29T19:38:05.595Z,35.28
2023-01-29T19:41:05.363Z,35.15
2023-01-29T19:44:03.069Z,41.08
2023-01-29T19:47:01.284Z,44.58
2023-01-29T19:50:00.292Z,39.00
2023-01-29T19:52:59.935Z,29.20
2023-01-29T19:56:02.391Z,25.42
2023-01-29T19:59:00.364Z,21.30
2023-01-29T20:01:58.236Z,21.67
2023-01-29T20:04:56.876Z,22.60
2023-01-29T20:07:55.387Z,30.60
2023-01-29T20:10:53.411Z,42.28
2023-01-29T20:13:52.754Z,65.40
2023-01-29T20:16:51.957Z,111.45
2023-01-29T20:19:53.387Z,110.53
2023-01-29T20:29:39.725Z,42.22
2023-01-29T20:32:37.649Z,21.48
2023-01-29T20:35:36.993Z,19.33
2023-01-29T20:38:35.440Z,18.05
2023-01-29T20:41:34.640Z,16.63
2023-01-29T20:44:32.351Z,18.02
2023-01-29T20:47:30.370Z,18.10
2023-01-29T20:50:28.175Z,18.92
2023-01-29T20:53:26.322Z,17.02
2023-01-29T20:56:32.087Z,17.67
2023-01-29T20:59:36.309Z,16.42
2023-01-29T21:02:34.475Z,17.42
2023-01-29T21:08:54.062Z,20.92
2023-01-29T21:11:52.198Z,20.80
2023-01-29T21:14:50.178Z,20.08
2023-01-29T21:17:52.372Z,19.00
2023-01-29T21:20:50.910Z,18.30
2023-01-29T21:23:48.760Z,19.55
2023-01-29T21:26:47.463Z,20.08
2023-01-29T21:29:45.470Z,20.92
2023-01-29T21:32:43.268Z,20.83
2023-01-29T21:35:41.026Z,20.92
2023-01-29T21:38:39.163Z,21.63
2023-01-29T21:41:52.318Z,22.10
2023-01-29T21:47:47.624Z,16.50
2023-01-29T21:50:46.091Z,16.08
2023-01-29T21:53:43.933Z,18.33
2023-01-29T21:56:41.882Z,34.17
2023-01-29T21:59:39.896Z,97.80
2023-01-29T22:02:37.646Z,103.03
2023-01-29T22:05:35.819Z,88.18
2023-01-29T22:08:33.598Z,57.17
2023-01-29T22:11:31.449Z,51.67
2023-01-29T22:14:29.764Z,32.88
2023-01-29T22:17:27.555Z,42.60
2023-01-29T22:20:30.721Z,34.72
2023-01-29T22:23:29.189Z,26.98
2023-01-29T22:26:27.095Z,20.17
2023-01-29T22:29:24.873Z,18.50
2023-01-29T22:32:22.562Z,15.53
2023-01-29T22:35:20.342Z,15.20
2023-01-29T22:38:18.028Z,14.47
2023-01-29T22:41:16.017Z,13.57
2023-01-29T22:44:13.839Z,14.40
2023-01-29T22:47:11.647Z,12.97
2023-01-29T22:50:10.072Z,13.37
2023-01-29T22:53:08.345Z,13.05
2023-01-29T22:56:07.589Z,12.85
2023-01-29T22:59:05.507Z,17.45
2023-01-29T23:02:03.387Z,17.98
2023-01-29T23:05:01.243Z,44.70
2023-01-29T23:07:59.145Z,33.60
2023-01-29T23:11:14.764Z,28.27
2023-01-29T23:14:12.685Z,34.47
2023-01-29T23:17:11.165Z,40.63
2023-01-29T23:20:09.494Z,44.63
2023-01-29T23:23:07.269Z,65.65
2023-01-29T23:26:22.002Z,58.05
2023-01-29T23:29:19.900Z,52.43
2023-01-29T23:32:19.993Z,58.50
2023-01-29T23:35:17.851Z,58.25
2023-01-29T23:38:15.539Z,59.78
2023-01-29T23:41:13.260Z,52.45
2023-01-29T23:44:11.086Z,60.93
2023-01-29T23:47:09.685Z,50.70
2023-01-29T23:50:07.841Z,49.67
2023-01-29T23:53:05.807Z,49.07
2023-01-29T23:56:05.448Z,51.40
2023-01-29T23:59:03.485Z,42.67
